createdAt,value
2018-06-11T04:30:51.741Z,4184.00
2018-06-11T04:31:51.620Z,4184.00
2018-06-11T04:33:44.318Z,4184.00
2018-06-11T04:34:44.284Z,4184.00
2018-06-11T04:36:36.876Z,4184.00
2018-06-11T04:37:36.770Z,4184.00
2018-06-11T04:39:29.472Z,4184.00
2018-06-11T04:40:29.343Z,4184.00
2018-06-11T04:42:22.023Z,4184.00
2018-06-11T04:43:21.921Z,4184.00
2018-06-11T04:45:14.663Z,4184.00
2018-06-11T04:46:14.494Z,4184.00
2018-06-11T04:48:07.175Z,4184.00
2018-06-11T04:49:07.079Z,4184.00
2018-06-11T04:50:59.796Z,4184.00
2018-06-11T04:51:59.654Z,4184.00
2018-06-11T04:53:52.340Z,4184.00
2018-06-11T04:54:52.239Z,4184.00
2018-06-11T04:56:44.937Z,4184.00
2018-06-11T04:57:44.820Z,4184.00
2018-06-11T04:59:37.501Z,4184.00
2018-06-11T05:00:37.393Z,4184.00
2018-06-11T05:02:30.098Z,4184.00
2018-06-11T05:03:29.975Z,4184.00
2018-06-11T05:05:22.655Z,4184.00
2018-06-11T05:06:22.553Z,4184.00
2018-06-11T05:08:15.311Z,4184.00
2018-06-11T05:09:15.125Z,4184.00
2018-06-11T05:11:07.809Z,4184.00
2018-06-11T05:12:07.709Z,4184.00
2018-06-11T05:14:00.405Z,4184.00
2018-06-11T05:15:00.288Z,4184.00
2018-06-11T05:16:52.964Z,4184.00
2018-06-11T05:17:52.865Z,4184.00
2018-06-11T05:19:45.560Z,4184.00
2018-06-11T05:20:45.438Z,4184.00
2018-06-11T05:22:38.115Z,4184.00
2018-06-11T05:23:38.014Z,4184.00
2018-06-11T05:25:30.718Z,4184.00
2018-06-11T05:26:30.592Z,4184.00
2018-06-11T05:28:23.275Z,4184.00
2018-06-11T05:29:23.171Z,4184.00
2018-06-11T05:31:15.878Z,4184.00
2018-06-11T05:32:15.756Z,4184.00
2018-06-11T05:34:08.456Z,4184.00
2018-06-11T05:35:08.332Z,4184.00
2018-06-11T05:37:01.020Z,4184.00
2018-06-11T05:38:00.955Z,4184.00
2018-06-11T05:39:53.610Z,4184.00
2018-06-11T05:40:53.488Z,4184.00
2018-06-11T05:42:46.180Z,4184.00
2018-06-11T05:43:46.077Z,4184.00
2018-06-11T05:45:38.784Z,4184.00
2018-06-11T05:46:38.658Z,4184.00
2018-06-11T05:48:31.365Z,4184.00
2018-06-11T05:49:31.245Z,4184.00
2018-06-11T05:51:23.923Z,4184.00
2018-06-11T05:52:23.824Z,4184.00
2018-06-11T05:54:16.532Z,4184.00
2018-06-11T05:55:16.411Z,4184.00
2018-06-11T05:57:09.094Z,4184.00
2018-06-11T05:58:08.989Z,4184.00
2018-06-11T06:00:02.196Z,4184.00
2018-06-11T06:01:02.070Z,4184.00
2018-06-11T06:02:54.772Z,4184.00
2018-06-11T06:03:54.672Z,4184.00
2018-06-11T06:05:47.375Z,4184.00
2018-06-11T06:06:47.253Z,4184.00
2018-06-11T06:08:39.969Z,4184.00
2018-06-11T06:09:39.833Z,4184.00
2018-06-11T06:11:32.553Z,4184.00
2018-06-11T06:12:32.421Z,4184.00
2018-06-11T06:14:25.136Z,4184.00
2018-06-11T06:15:25.003Z,4184.00
2018-06-11T06:17:17.690Z,4184.00
2018-06-11T06:18:17.585Z,4184.00
2018-06-11T06:20:10.297Z,4184.00
2018-06-11T06:21:10.168Z,4184.00
2018-06-11T06:23:02.854Z,4184.00
2018-06-11T06:24:02.811Z,4184.00
2018-06-11T06:25:55.477Z,4184.00
2018-06-11T06:26:55.350Z,4184.00
2018-06-11T06:28:48.034Z,4184.00
2018-06-11T06:29:47.938Z,4184.00
2018-06-11T06:31:40.646Z,4184.00
2018-06-11T06:32:40.514Z,4184.00
2018-06-11T06:34:33.217Z,4184.00
2018-06-11T06:35:33.093Z,4184.00
2018-06-11T06:37:25.843Z,4184.00
2018-06-11T06:38:25.676Z,4184.00
2018-06-11T06:40:18.361Z,4184.00
2018-06-11T06:41:18.254Z,4184.00
2018-06-11T06:43:10.972Z,4184.00
2018-06-11T06:44:10.841Z,4184.00
2018-06-11T06:46:03.526Z,4184.00
2018-06-11T06:47:03.429Z,4184.00
2018-06-11T06:48:56.126Z,4184.00
2018-06-11T06:49:56.010Z,4184.00
2018-06-11T06:51:48.693Z,4184.00
2018-06-11T06:52:48.598Z,4184.00
2018-06-11T06:54:41.302Z,4184.00
2018-06-11T06:55:41.189Z,4184.00
2018-06-11T06:57:33.874Z,4184.00
2018-06-11T06:58:33.770Z,4184.00
2018-06-11T07:00:26.500Z,4184.00
2018-06-11T07:01:26.374Z,4184.00
2018-06-11T07:03:19.063Z,4184.00
2018-06-11T07:04:18.964Z,4184.00
2018-06-11T07:06:11.673Z,4184.00
2018-06-11T07:07:11.555Z,4184.00
2018-06-11T07:09:04.252Z,4184.00
2018-06-11T07:10:04.152Z,4184.00
2018-06-11T07:11:56.854Z,4184.00
2018-06-11T07:12:56.788Z,4184.00
2018-06-11T07:14:49.432Z,4184.00
2018-06-11T07:15:49.330Z,4184.00
2018-06-11T07:17:42.034Z,4184.00
2018-06-11T07:18:41.921Z,4184.00
2018-06-11T07:20:34.607Z,4184.00
2018-06-11T07:21:34.504Z,4184.00
2018-06-11T07:23:27.216Z,4184.00
2018-06-11T07:24:27.094Z,4184.00
2018-06-11T07:26:19.786Z,4184.00
2018-06-11T07:27:19.686Z,4184.00
2018-06-11T07:29:12.395Z,88160.00
2018-06-11T07:30:12.278Z,88576.00
2018-06-11T07:32:04.979Z,28064.00
2018-06-11T07:33:04.884Z,28960.00
2018-06-11T07:34:57.619Z,18336.00
2018-06-11T07:35:57.486Z,18272.00
2018-06-11T07:37:50.199Z,21632.00
2018-06-11T07:38:50.099Z,23264.00
2018-06-11T07:40:42.821Z,23744.00
2018-06-11T07:41:42.699Z,20544.00
2018-06-11T07:43:35.402Z,20544.00
2018-06-11T07:44:35.305Z,24768.00
2018-06-11T07:46:28.018Z,25408.00
2018-06-11T07:47:27.908Z,24608.00
2018-06-11T07:49:20.592Z,22368.00
2018-06-11T07:50:20.499Z,22144.00
2018-06-11T07:52:13.217Z,25504.00
2018-06-11T07:53:13.097Z,28800.00
2018-06-11T07:55:05.791Z,43488.00
2018-06-11T07:56:05.691Z,40992.00
2018-06-11T07:57:58.416Z,60864.00
2018-06-11T07:58:58.301Z,54496.00
2018-06-11T08:00:51.018Z,26688.00
2018-06-11T08:01:50.918Z,28416.00
2018-06-11T08:03:43.662Z,20096.00
2018-06-11T08:04:43.527Z,19904.00
2018-06-11T08:06:36.222Z,21888.00
2018-06-11T08:07:36.124Z,23872.00
2018-06-11T08:09:28.853Z,27264.00
2018-06-11T08:10:28.729Z,26400.00
2018-06-11T08:12:21.425Z,24832.00
2018-06-11T08:13:21.373Z,27264.00
2018-06-11T08:15:14.043Z,46176.00
2018-06-11T08:16:13.963Z,25792.00
2018-06-11T08:18:06.622Z,18912.00
2018-06-11T08:19:06.530Z,18912.00
2018-06-11T08:20:59.244Z,20768.00
2018-06-11T08:21:59.125Z,20000.00
2018-06-11T08:23:51.824Z,55296.00
2018-06-11T08:24:51.722Z,27328.00
2018-06-11T08:26:44.444Z,32960.00
2018-06-11T08:27:44.346Z,82432.00
2018-06-11T08:29:37.033Z,36032.00
2018-06-11T08:30:36.938Z,23136.00
2018-06-11T08:32:29.652Z,72672.00
2018-06-11T08:33:29.533Z,43712.00
2018-06-11T08:35:22.236Z,85696.00
2018-06-11T08:36:22.179Z,84416.00
2018-06-11T08:38:14.858Z,76992.00
2018-06-11T08:39:14.752Z,77088.00
2018-06-11T08:41:07.461Z,59488.00
2018-06-11T08:42:07.395Z,66560.00
2018-06-11T08:44:00.105Z,74880.00
2018-06-11T08:44:59.987Z,71808.00
2018-06-11T08:46:52.693Z,67360.00
2018-06-11T08:47:52.602Z,61696.00
2018-06-11T08:49:45.328Z,21728.00
2018-06-11T08:50:45.219Z,16832.00
2018-06-11T08:52:37.921Z,13600.00
2018-06-11T08:53:37.832Z,12864.00
2018-06-11T08:55:30.562Z,12104.00
2018-06-11T08:56:30.446Z,11636.00
2018-06-11T08:58:23.152Z,10452.00
2018-06-11T08:59:23.055Z,10100.00
2018-06-11T09:01:15.780Z,9624.00
2018-06-11T09:02:15.670Z,10036.00
2018-06-11T09:04:08.376Z,10372.00
2018-06-11T09:05:08.279Z,10760.00
2018-06-11T09:07:01.024Z,10152.00
2018-06-11T09:08:00.873Z,10152.00
2018-06-11T09:09:53.582Z,8928.00
2018-06-11T09:10:53.482Z,8916.00
2018-06-11T09:12:46.199Z,9316.00
2018-06-11T09:13:46.085Z,9316.00
2018-06-11T09:15:38.795Z,9316.00
2018-06-11T09:16:38.679Z,9316.00
2018-06-11T09:18:31.415Z,9316.00
2018-06-11T09:19:31.279Z,9316.00
2018-06-11T09:21:24.000Z,9316.00
2018-06-11T09:22:23.875Z,9316.00
2018-06-11T09:24:16.570Z,9316.00
2018-06-11T09:25:16.471Z,9316.00
2018-06-11T09:27:09.178Z,9316.00
2018-06-11T09:28:09.062Z,9316.00
2018-06-11T09:30:01.749Z,9316.00
2018-06-11T09:31:01.699Z,9316.00
2018-06-11T09:32:54.362Z,9316.00
2018-06-11T09:33:54.237Z,9316.00
2018-06-11T09:35:46.937Z,9316.00
2018-06-11T09:36:46.834Z,9316.00
2018-06-11T09:38:39.561Z,9316.00
2018-06-11T09:39:39.437Z,9316.00
2018-06-11T09:41:32.128Z,9316.00
2018-06-11T09:42:32.031Z,9316.00
2018-06-11T09:44:24.752Z,9316.00
2018-06-11T09:45:24.630Z,9316.00
2018-06-11T09:47:17.813Z,9316.00
2018-06-11T09:48:17.718Z,9316.00
2018-06-11T09:50:10.429Z,11596.00
2018-06-11T09:51:10.306Z,12716.00
2018-06-11T09:53:03.276Z,14136.00
2018-06-11T09:54:03.181Z,14136.00
2018-06-11T09:55:55.901Z,16928.00
2018-06-11T09:56:55.781Z,17792.00
2018-06-11T09:58:48.481Z,17632.00
2018-06-11T09:59:48.367Z,17632.00
2018-06-11T10:01:41.091Z,18784.00
2018-06-11T10:02:40.970Z,18880.00
2018-06-11T10:04:33.661Z,19424.00
2018-06-11T10:05:33.560Z,19424.00
2018-06-11T10:07:26.298Z,21088.00
2018-06-11T10:08:26.179Z,21536.00
2018-06-11T10:10:18.878Z,21120.00
2018-06-11T10:11:18.854Z,21120.00
2018-06-11T10:13:11.503Z,19552.00
2018-06-11T10:14:11.376Z,19744.00
2018-06-11T10:16:04.078Z,20000.00
2018-06-11T10:17:03.977Z,20000.00
2018-06-11T10:18:56.694Z,15072.00
2018-06-11T10:19:56.576Z,13744.00
2018-06-11T10:21:49.284Z,12856.00
2018-06-11T10:22:49.188Z,12856.00
2018-06-11T10:24:41.895Z,11068.00
2018-06-11T10:25:41.814Z,10528.00
2018-06-11T10:27:34.520Z,10904.00
2018-06-11T10:28:34.443Z,10904.00
2018-06-11T10:30:27.093Z,13836.00
2018-06-11T10:31:27.021Z,15488.00
2018-06-11T10:33:19.712Z,15968.00
2018-06-11T10:34:19.595Z,15968.00
2018-06-11T10:36:12.310Z,15680.00
2018-06-11T10:37:12.187Z,13636.00
2018-06-11T10:39:04.914Z,11456.00
2018-06-11T10:40:04.779Z,11456.00
2018-06-11T10:41:57.484Z,11456.00
2018-06-11T10:42:57.379Z,11456.00
2018-06-11T10:44:50.091Z,11456.00
2018-06-11T10:45:49.977Z,11456.00
2018-06-11T10:47:42.664Z,11456.00
2018-06-11T10:48:42.574Z,11456.00
2018-06-11T10:50:35.279Z,11456.00
2018-06-11T10:51:35.168Z,11456.00
2018-06-11T10:53:28.002Z,11456.00
2018-06-11T10:54:27.755Z,11456.00
2018-06-11T10:56:20.461Z,11456.00
2018-06-11T10:57:20.347Z,11456.00
2018-06-11T10:59:13.034Z,11456.00
2018-06-11T11:00:12.937Z,11456.00
2018-06-11T11:02:05.797Z,11456.00
2018-06-11T11:03:05.537Z,11456.00
2018-06-11T11:04:58.251Z,11456.00
2018-06-11T11:05:58.130Z,11456.00
2018-06-11T11:07:50.819Z,11456.00
2018-06-11T11:08:50.779Z,11456.00
2018-06-11T11:10:43.449Z,11456.00
2018-06-11T11:11:43.324Z,11456.00
2018-06-11T11:13:36.012Z,11456.00
2018-06-11T11:14:35.910Z,11456.00
2018-06-11T11:16:28.622Z,11456.00
2018-06-11T11:17:28.504Z,11456.00
2018-06-11T11:19:21.201Z,11456.00
2018-06-11T11:20:21.093Z,11456.00
2018-06-11T11:22:13.810Z,11456.00
2018-06-11T11:23:13.686Z,11456.00
2018-06-11T11:25:06.377Z,11456.00
2018-06-11T11:26:06.273Z,11456.00
2018-06-11T11:27:58.979Z,11456.00
2018-06-11T11:28:58.868Z,11456.00
2018-06-11T11:30:51.738Z,11456.00
2018-06-11T11:31:51.456Z,11456.00
2018-06-11T11:33:44.244Z,11456.00
2018-06-11T11:34:44.047Z,11456.00
2018-06-11T11:36:36.739Z,11456.00
2018-06-11T11:37:36.642Z,11456.00
2018-06-11T11:39:29.357Z,11456.00
2018-06-11T11:40:29.230Z,11456.00
2018-06-11T11:42:21.920Z,11456.00
2018-06-11T11:43:21.823Z,11456.00
2018-06-11T11:45:14.529Z,11456.00
2018-06-11T11:46:14.412Z,11456.00
2018-06-11T11:48:07.104Z,11456.00
2018-06-11T11:49:07.004Z,11456.00
2018-06-11T11:50:59.768Z,11456.00
2018-06-11T11:51:59.596Z,11456.00
2018-06-11T11:53:52.291Z,11456.00
2018-06-11T11:54:52.189Z,11456.00
2018-06-11T11:56:44.893Z,11456.00
2018-06-11T11:57:44.777Z,11456.00
2018-06-11T11:59:37.478Z,11456.00
2018-06-11T12:00:37.375Z,11456.00
2018-06-11T12:02:30.080Z,11456.00
2018-06-11T12:03:29.960Z,11456.00
2018-06-11T12:05:22.654Z,11456.00
2018-06-11T12:06:22.555Z,11456.00
2018-06-11T12:08:15.275Z,11456.00
2018-06-11T12:09:15.161Z,11456.00
2018-06-11T12:11:07.841Z,11456.00
2018-06-11T12:12:07.741Z,11456.00
2018-06-11T12:14:00.469Z,11456.00
2018-06-11T12:15:00.337Z,11456.00
2018-06-11T12:16:53.053Z,11456.00
2018-06-11T12:17:52.957Z,11456.00
2018-06-11T12:19:45.667Z,11456.00
2018-06-11T12:20:45.545Z,11456.00
2018-06-11T12:22:38.236Z,11456.00
2018-06-11T12:23:38.141Z,11456.00
2018-06-11T12:25:30.859Z,11456.00
2018-06-11T12:26:30.730Z,11456.00
2018-06-11T12:28:23.415Z,11456.00
2018-06-11T12:29:23.319Z,11456.00
2018-06-11T12:31:16.048Z,11456.00
2018-06-11T12:32:15.908Z,11456.00
2018-06-11T12:34:08.601Z,11456.00
2018-06-11T12:35:08.495Z,11456.00
2018-06-11T12:37:01.212Z,11456.00
2018-06-11T12:38:01.093Z,11456.00
2018-06-11T12:39:53.787Z,11456.00
2018-06-11T12:40:53.681Z,11456.00
2018-06-11T12:42:46.391Z,11456.00
2018-06-11T12:43:46.274Z,11456.00
2018-06-11T12:45:38.968Z,11456.00
2018-06-11T12:46:38.866Z,11456.00
2018-06-11T12:48:31.626Z,11456.00
2018-06-11T12:49:31.460Z,11456.00
2018-06-11T12:51:24.299Z,11456.00
2018-06-11T12:52:24.067Z,11456.00
2018-06-11T12:54:16.761Z,11456.00
2018-06-11T12:55:16.646Z,11456.00
2018-06-11T12:57:09.505Z,11456.00
2018-06-11T12:58:09.232Z,11456.00
2018-06-11T13:00:01.928Z,11456.00
2018-06-11T13:01:01.829Z,11456.00
2018-06-11T13:02:54.571Z,11456.00
2018-06-11T13:03:54.417Z,11456.00
2018-06-11T13:05:47.103Z,11456.00
2018-06-11T13:06:47.004Z,11456.00
2018-06-11T13:08:40.234Z,11456.00
2018-06-11T13:09:40.102Z,11456.00
2018-06-11T13:11:32.791Z,11456.00
2018-06-11T13:12:32.708Z,11456.00
2018-06-11T13:14:25.478Z,11456.00
2018-06-11T13:15:25.322Z,11456.00
2018-06-11T13:17:18.011Z,11456.00
2018-06-11T13:18:17.910Z,11456.00
2018-06-11T13:20:10.616Z,11456.00
2018-06-11T13:21:10.502Z,11456.00
2018-06-11T13:23:03.207Z,11456.00
2018-06-11T13:24:03.094Z,11456.00
2018-06-11T13:25:55.959Z,11456.00
2018-06-11T13:26:55.680Z,11456.00
2018-06-11T13:28:48.371Z,11456.00
2018-06-11T13:29:48.268Z,11456.00
2018-06-11T13:31:40.983Z,11456.00
2018-06-11T13:32:40.858Z,11456.00
2018-06-11T13:34:33.557Z,11456.00
2018-06-11T13:35:33.464Z,11456.00
2018-06-11T13:37:26.196Z,11456.00
2018-06-11T13:38:26.076Z,11456.00
2018-06-11T13:40:18.762Z,11456.00
2018-06-11T13:41:18.662Z,11456.00
2018-06-11T13:43:11.379Z,11456.00
2018-06-11T13:44:11.258Z,11456.00
2018-06-11T13:46:03.947Z,11456.00
2018-06-11T13:47:03.850Z,11456.00
2018-06-11T13:48:56.565Z,11456.00
2018-06-11T13:49:56.434Z,11456.00
2018-06-11T13:51:49.132Z,11456.00
2018-06-11T13:52:49.029Z,11456.00
2018-06-11T13:54:41.737Z,11456.00
2018-06-11T13:55:41.616Z,11456.00
2018-06-11T13:57:34.307Z,11456.00
2018-06-11T13:58:34.207Z,11456.00
2018-06-11T14:00:26.925Z,11456.00
2018-06-11T14:01:26.796Z,11456.00
2018-06-11T14:03:19.493Z,11456.00
2018-06-11T14:04:19.394Z,11456.00
2018-06-11T14:06:12.100Z,11456.00
2018-06-11T14:07:11.983Z,11456.00
2018-06-11T14:09:04.672Z,11456.00
2018-06-11T14:10:04.580Z,11456.00
2018-06-11T14:11:57.299Z,11456.00
2018-06-11T14:12:57.178Z,11456.00
2018-06-11T14:14:49.870Z,11456.00
2018-06-11T14:15:49.766Z,11456.00
2018-06-11T14:17:42.978Z,11456.00
2018-06-11T14:18:42.862Z,11456.00
2018-06-11T14:20:35.555Z,11456.00
2018-06-11T14:21:35.457Z,11456.00
2018-06-11T14:23:28.165Z,11456.00
2018-06-11T14:24:28.079Z,11456.00
2018-06-11T14:26:20.736Z,11456.00
2018-06-11T14:27:20.641Z,11456.00
2018-06-11T14:29:13.350Z,11456.00
2018-06-11T14:30:13.229Z,11456.00
2018-06-11T14:32:05.951Z,11456.00
2018-06-11T14:33:05.828Z,11456.00
2018-06-11T14:34:58.527Z,11456.00
2018-06-11T14:35:58.437Z,11456.00
2018-06-11T14:37:51.147Z,11456.00
2018-06-11T14:38:51.039Z,11456.00
2018-06-11T14:40:43.726Z,11456.00
2018-06-11T14:41:43.632Z,11456.00
2018-06-11T14:43:36.352Z,11456.00
2018-06-11T14:44:36.225Z,11456.00
2018-06-11T14:46:28.925Z,11456.00
2018-06-11T14:47:28.826Z,11456.00
2018-06-11T14:49:21.538Z,11456.00
2018-06-11T14:50:21.424Z,11456.00
2018-06-11T14:52:14.171Z,10028.00
2018-06-11T14:53:14.025Z,10252.00
2018-06-11T14:55:06.710Z,10464.00
2018-06-11T14:56:06.615Z,10464.00
2018-06-11T14:57:59.342Z,10464.00
2018-06-11T14:58:59.208Z,10464.00
2018-06-11T15:00:51.912Z,11580.00
2018-06-11T15:01:51.818Z,11760.00
2018-06-11T15:03:44.727Z,11948.00
2018-06-11T15:04:44.438Z,11948.00
2018-06-11T15:06:37.143Z,11940.00
2018-06-11T15:07:37.042Z,12036.00
2018-06-11T15:09:29.772Z,11884.00
2018-06-11T15:10:29.642Z,11884.00
2018-06-11T15:12:22.585Z,11820.00
2018-06-11T15:13:22.478Z,12024.00
2018-06-11T15:15:15.191Z,12044.00
2018-06-11T15:16:15.073Z,12044.00
2018-06-11T15:18:07.766Z,11792.00
2018-06-11T15:19:07.673Z,11844.00
2018-06-11T15:21:00.383Z,11740.00
2018-06-11T15:22:00.279Z,11740.00
2018-06-11T15:23:52.968Z,11156.00
2018-06-11T15:24:52.871Z,10992.00
2018-06-11T15:26:45.584Z,10688.00
2018-06-11T15:27:45.466Z,10688.00
2018-06-11T15:29:38.182Z,10060.00
2018-06-11T15:30:38.080Z,9884.00
2018-06-11T15:32:30.757Z,9724.00
2018-06-11T15:33:30.665Z,9724.00
2018-06-11T15:35:23.395Z,9364.00
2018-06-11T15:36:23.267Z,9204.00
2018-06-11T15:38:15.971Z,9028.00
2018-06-11T15:39:15.868Z,9028.00
2018-06-11T15:41:09.951Z,9028.00
2018-06-11T15:42:08.467Z,9028.00
2018-06-11T15:44:01.158Z,9028.00
2018-06-11T15:45:01.073Z,9028.00
2018-06-11T15:46:53.778Z,7648.00
2018-06-11T15:47:53.660Z,7452.00
2018-06-11T15:49:46.361Z,7352.00
2018-06-11T15:50:46.256Z,7352.00
2018-06-11T15:52:38.977Z,7352.00
2018-06-11T15:53:38.860Z,7352.00
2018-06-11T15:55:31.555Z,7352.00
2018-06-11T15:56:31.453Z,7352.00
2018-06-11T15:58:24.167Z,7352.00
2018-06-11T15:59:24.048Z,7352.00
2018-06-11T16:01:16.766Z,7352.00
2018-06-11T16:02:16.652Z,7352.00
2018-06-11T16:04:09.371Z,7352.00
2018-06-11T16:05:09.240Z,7352.00
2018-06-11T16:07:01.945Z,7352.00
2018-06-11T16:08:01.840Z,7352.00
2018-06-11T16:09:54.585Z,7352.00
2018-06-11T16:10:54.439Z,7352.00
2018-06-11T16:12:47.140Z,7352.00
2018-06-11T16:13:47.035Z,7352.00
2018-06-11T16:15:39.752Z,7352.00
2018-06-11T16:16:39.633Z,7352.00
2018-06-11T16:18:32.341Z,7352.00
2018-06-11T16:19:32.227Z,7352.00
2018-06-11T16:21:24.939Z,7352.00
2018-06-11T16:22:24.816Z,7352.00
2018-06-11T16:24:17.581Z,7352.00
2018-06-11T16:25:17.432Z,7352.00
2018-06-11T16:27:10.129Z,7352.00
2018-06-11T16:28:10.046Z,7352.00
2018-06-11T16:30:02.738Z,7352.00
2018-06-11T16:31:02.612Z,7352.00
2018-06-11T16:32:55.300Z,7352.00
2018-06-11T16:33:55.204Z,7352.00
2018-06-11T16:35:47.942Z,7352.00
2018-06-11T16:36:47.833Z,7352.00
2018-06-11T16:38:40.500Z,7352.00
2018-06-11T16:39:40.415Z,7352.00
2018-06-11T16:41:33.125Z,7352.00
2018-06-11T16:42:33.005Z,7352.00
2018-06-11T16:44:25.693Z,7352.00
2018-06-11T16:45:25.591Z,7352.00
2018-06-11T16:47:18.326Z,7352.00
2018-06-11T16:48:18.210Z,7352.00
2018-06-11T16:50:10.964Z,7352.00
2018-06-11T16:51:10.899Z,7352.00
2018-06-11T16:53:03.624Z,7352.00
2018-06-11T16:54:03.403Z,7352.00
2018-06-11T16:55:56.096Z,7352.00
2018-06-11T16:56:56.094Z,7352.00
2018-06-11T16:58:48.726Z,7352.00
2018-06-11T16:59:48.604Z,7352.00
2018-06-11T17:01:41.340Z,7352.00
2018-06-11T17:02:41.249Z,7352.00
2018-06-11T17:04:33.898Z,7352.00
2018-06-11T17:05:33.900Z,7352.00
2018-06-11T17:07:26.517Z,7352.00
2018-06-11T17:08:26.412Z,7352.00
2018-06-11T17:10:19.077Z,7352.00
2018-06-11T17:11:19.008Z,7352.00
2018-06-11T17:13:11.695Z,7352.00
2018-06-11T17:14:11.581Z,7352.00
2018-06-11T17:16:04.262Z,7352.00
2018-06-11T17:17:04.162Z,7352.00
2018-06-11T17:18:56.876Z,7352.00
2018-06-11T17:19:56.753Z,7352.00
2018-06-11T17:21:49.453Z,7352.00
2018-06-11T17:22:49.342Z,7352.00
2018-06-11T17:24:42.048Z,7352.00
2018-06-11T17:25:41.934Z,7352.00
2018-06-11T17:27:34.625Z,7352.00
2018-06-11T17:28:34.524Z,7352.00
2018-06-11T17:30:27.384Z,7352.00
2018-06-11T17:31:27.112Z,7352.00
2018-06-11T17:33:19.819Z,7352.00
2018-06-11T17:34:19.703Z,7352.00
2018-06-11T17:36:12.425Z,7352.00
2018-06-11T17:37:12.302Z,7352.00
2018-06-11T17:39:04.986Z,7352.00
2018-06-11T17:40:04.882Z,7352.00
2018-06-11T17:41:57.595Z,7352.00
2018-06-11T17:42:57.476Z,7352.00
2018-06-11T17:44:50.159Z,7352.00
2018-06-11T17:45:50.064Z,7352.00
2018-06-11T17:47:42.775Z,7352.00
2018-06-11T17:48:42.657Z,7352.00
2018-06-11T17:50:35.342Z,7352.00
2018-06-11T17:51:35.275Z,7352.00
2018-06-11T17:53:27.964Z,7352.00
2018-06-11T17:54:27.841Z,7352.00
2018-06-11T17:56:20.515Z,7352.00
2018-06-11T17:57:20.458Z,7352.00
2018-06-11T17:59:13.129Z,7352.00
2018-06-11T18:00:13.010Z,7352.00
2018-06-11T18:02:05.693Z,7352.00
2018-06-11T18:03:05.595Z,7352.00
2018-06-11T18:04:58.302Z,7352.00
2018-06-11T18:05:58.182Z,7352.00
2018-06-11T18:07:50.870Z,7352.00
2018-06-11T18:08:50.781Z,7352.00
2018-06-11T18:10:43.503Z,7352.00
2018-06-11T18:11:43.421Z,7352.00
2018-06-11T18:13:36.059Z,7352.00
2018-06-11T18:14:36.014Z,7352.00
2018-06-11T18:16:28.657Z,7352.00
2018-06-11T18:17:28.535Z,7352.00
2018-06-11T18:19:21.394Z,7352.00
2018-06-11T18:20:21.128Z,7352.00
2018-06-11T18:22:13.823Z,7352.00
2018-06-11T18:23:13.718Z,7352.00
2018-06-11T18:25:06.423Z,7352.00
2018-06-11T18:26:06.298Z,7352.00
2018-06-11T18:27:58.988Z,7352.00
2018-06-11T18:28:58.890Z,7352.00
2018-06-11T18:30:51.603Z,7352.00
2018-06-11T18:31:51.480Z,7352.00
2018-06-11T18:33:44.163Z,7352.00
2018-06-11T18:34:44.067Z,7352.00
2018-06-11T18:36:36.777Z,7352.00
2018-06-11T18:37:36.649Z,7352.00
2018-06-11T18:39:29.341Z,7352.00
2018-06-11T18:40:29.234Z,7352.00
2018-06-11T18:42:21.948Z,7352.00
2018-06-11T18:43:21.842Z,7352.00
2018-06-11T18:45:15.017Z,7352.00
2018-06-11T18:46:14.922Z,7352.00
2018-06-11T18:48:07.691Z,7352.00
2018-06-11T18:49:07.509Z,7352.00
2018-06-11T18:51:00.212Z,7352.00
2018-06-11T18:52:00.099Z,7352.00
2018-06-11T18:53:52.806Z,7352.00
2018-06-11T18:54:52.693Z,7352.00
2018-06-11T18:56:45.381Z,7352.00
2018-06-11T18:57:45.276Z,7352.00
2018-06-11T18:59:37.986Z,7352.00
2018-06-11T19:00:37.862Z,7352.00
2018-06-11T19:02:30.553Z,7352.00
2018-06-11T19:03:30.451Z,7352.00
2018-06-11T19:05:23.158Z,7352.00
2018-06-11T19:06:23.040Z,7352.00
2018-06-11T19:08:15.720Z,7352.00
2018-06-11T19:09:15.617Z,7352.00
2018-06-11T19:11:08.327Z,7352.00
2018-06-11T19:12:08.210Z,7352.00
2018-06-11T19:14:00.910Z,7352.00
2018-06-11T19:15:00.793Z,7352.00
2018-06-11T19:16:53.479Z,7352.00
2018-06-11T19:17:53.383Z,7352.00
2018-06-11T19:19:46.090Z,7352.00
2018-06-11T19:20:45.964Z,7352.00
2018-06-11T19:22:38.654Z,7352.00
2018-06-11T19:23:38.553Z,7352.00
2018-06-11T19:25:31.265Z,7352.00
2018-06-11T19:26:31.139Z,7352.00
2018-06-11T19:28:23.825Z,7352.00
2018-06-11T19:29:23.724Z,7352.00
2018-06-11T19:31:16.465Z,7352.00
2018-06-11T19:32:16.315Z,7352.00
2018-06-11T19:34:08.999Z,7352.00
2018-06-11T19:35:08.955Z,7352.00
2018-06-11T19:37:01.600Z,7352.00
2018-06-11T19:38:01.480Z,7352.00
2018-06-11T19:39:54.171Z,7352.00
2018-06-11T19:40:54.062Z,7352.00
2018-06-11T19:42:46.764Z,7352.00
2018-06-11T19:43:46.653Z,7352.00
2018-06-11T19:45:39.327Z,7352.00
2018-06-11T19:46:39.226Z,7352.00
2018-06-11T19:48:31.933Z,7352.00
2018-06-11T19:49:31.809Z,7352.00
2018-06-11T19:51:24.647Z,7352.00
2018-06-11T19:52:24.404Z,7352.00
2018-06-11T19:54:17.131Z,7352.00
2018-06-11T19:55:17.062Z,7352.00
2018-06-11T19:57:09.824Z,7352.00
2018-06-11T19:58:09.566Z,7352.00
2018-06-11T20:00:02.264Z,7352.00
2018-06-11T20:01:02.149Z,7352.00
2018-06-11T20:02:54.858Z,7352.00
2018-06-11T20:03:54.726Z,7352.00
2018-06-11T20:05:47.428Z,7352.00
2018-06-11T20:06:47.313Z,7352.00
2018-06-11T20:08:40.024Z,7352.00
2018-06-11T20:09:39.892Z,7352.00
2018-06-11T20:11:32.581Z,7352.00
2018-06-11T20:12:32.480Z,7352.00
2018-06-11T20:14:25.193Z,7352.00
2018-06-11T20:15:25.064Z,7352.00
2018-06-11T20:17:17.751Z,7352.00
2018-06-11T20:18:17.654Z,7352.00
2018-06-11T20:20:10.361Z,7352.00
2018-06-11T20:21:10.230Z,7352.00
2018-06-11T20:23:02.917Z,7352.00
2018-06-11T20:24:02.810Z,7352.00
2018-06-11T20:25:55.524Z,7352.00
2018-06-11T20:26:55.411Z,7352.00
2018-06-11T20:28:48.080Z,7352.00
2018-06-11T20:29:47.975Z,7352.00
2018-06-11T20:31:40.685Z,7352.00
2018-06-11T20:32:40.558Z,7352.00
2018-06-11T20:34:33.265Z,7352.00
2018-06-11T20:35:33.161Z,7352.00
2018-06-11T20:37:25.874Z,7352.00
2018-06-11T20:38:25.752Z,7352.00
2018-06-11T20:40:18.424Z,7352.00
2018-06-11T20:41:18.325Z,7352.00
2018-06-11T20:43:11.024Z,7352.00
2018-06-11T20:44:10.906Z,7352.00
2018-06-11T20:46:03.608Z,7352.00
2018-06-11T20:47:03.516Z,7352.00
2018-06-11T20:48:56.203Z,7352.00
2018-06-11T20:49:56.087Z,7352.00
2018-06-11T20:51:48.773Z,7352.00
2018-06-11T20:52:48.673Z,7352.00
2018-06-11T20:54:41.373Z,7352.00
2018-06-11T20:55:41.252Z,7352.00
2018-06-11T20:57:33.938Z,7352.00
2018-06-11T20:58:33.830Z,7352.00
2018-06-11T21:00:26.535Z,7352.00
2018-06-11T21:01:26.415Z,7352.00
2018-06-11T21:03:19.104Z,7352.00
2018-06-11T21:04:18.996Z,7352.00
2018-06-11T21:06:11.696Z,7352.00
2018-06-11T21:07:11.576Z,7352.00
2018-06-11T21:09:04.280Z,7352.00
2018-06-11T21:10:04.155Z,7352.00
2018-06-11T21:11:56.840Z,7352.00
2018-06-11T21:12:56.747Z,7352.00
2018-06-11T21:14:49.442Z,7352.00
2018-06-11T21:15:49.406Z,7352.00
2018-06-11T21:17:42.049Z,7352.00
2018-06-11T21:18:41.896Z,7352.00
2018-06-11T21:20:34.598Z,7352.00
2018-06-11T21:21:34.480Z,7352.00
2018-06-11T21:23:27.178Z,7352.00
2018-06-11T21:24:27.057Z,7352.00
2018-06-11T21:26:19.761Z,7352.00
2018-06-11T21:27:19.632Z,7352.00
2018-06-11T21:29:12.356Z,7352.00
2018-06-11T21:30:12.214Z,7352.00
2018-06-11T21:32:04.892Z,7352.00
2018-06-11T21:33:04.791Z,7352.00
2018-06-11T21:34:57.519Z,7352.00
2018-06-11T21:35:58.116Z,7352.00
2018-06-11T21:37:50.054Z,7352.00
2018-06-11T21:38:49.951Z,7352.00
2018-06-11T21:40:42.653Z,7352.00